Time;durP1;ratioP1;P1;durP2;ratioP2;P2;SDS_P1;SDS_P2;PMS_P1;PMS_P2;Temp;Humidity;BMP_temperature;BMP_pressure;BME280_temperature;BME280_humidity;BME280_pressure;Samples;Min_cycle;Max_cycle;Signal;HPM_P1;HPM_P2
2022/05/02 00:01:32;;;;;;;;;;;15.50;99.90;;;;;;5074096;28;19915;-79
2022/05/02 00:03:58;;;;;;;;;;;15.60;99.90;;;;;;5074131;28;19973;-78
2022/05/02 00:06:23;;;;;;;;;;;15.60;99.90;;;;;;5074412;28;20408;-78
2022/05/02 00:08:49;;;;;;;;;;;15.60;99.90;;;;;;5074241;28;19977;-77
2022/05/02 00:11:15;;;;;;;;;;;15.50;99.90;;;;;;5055876;28;19927;-77
2022/05/02 00:13:40;;;;;;;;;;;15.50;99.90;;;;;;5073924;28;19945;-78
2022/05/02 00:16:09;;;;;;;;;;;15.40;99.90;;;;;;5073932;28;19912;-78
2022/05/02 00:18:35;;;;;;;;;;;15.20;99.90;;;;;;5055834;28;19908;-78
2022/05/02 00:21:00;;;;;;;;;;;15.40;99.90;;;;;;5074010;28;19908;-78
2022/05/02 00:23:26;;;;;;;;;;;15.20;99.90;;;;;;5073855;28;19949;-77
2022/05/02 00:25:52;;;;;;;;;;;15.30;99.90;;;;;;5073738;28;19905;-78
2022/05/02 00:28:17;;;;;;;;;;;15.30;99.90;;;;;;5073692;28;19991;-78
2022/05/02 00:30:43;;;;;;;;;;;15.30;99.90;;;;;;5055706;28;19904;-78
2022/05/02 00:33:09;;;;;;;;;;;15.30;99.90;;;;;;5073808;28;20204;-78
2022/05/02 00:35:34;;;;;;;;;;;15.30;99.90;;;;;;5073804;28;19905;-78
2022/05/02 00:38:00;;;;;;;;;;;15.30;99.90;;;;;;5073375;28;19923;-79
2022/05/02 00:40:26;;;;;;;;;;;15.30;99.90;;;;;;5073487;28;20015;-79
2022/05/02 00:42:51;;;;;;;;;;;15.40;99.90;;;;;;5055584;28;19936;-78
2022/05/02 00:45:18;;;;;;;;;;;15.30;99.90;;;;;;5074980;28;20022;-79
2022/05/02 00:47:54;;;;;;;;;;;15.30;99.90;;;;;;5077837;28;19904;-77
2022/05/02 00:50:32;;;;;;;;;;;15.10;99.90;;;;;;5059675;28;19908;-77
2022/05/02 00:52:57;;;;;;;;;;;15.00;99.90;;;;;;5077628;28;19905;-76
2022/05/02 00:55:23;;;;;;;;;;;15.10;99.90;;;;;;5077946;28;19905;-78
2022/05/02 00:57:49;;;;;;;;;;;15.20;99.90;;;;;;5077759;28;20065;-79
2022/05/02 01:00:14;;;;;;;;;;;15.10;99.90;;;;;;5059393;28;19908;-78
2022/05/02 01:02:40;;;;;;;;;;;14.90;99.90;;;;;;5077506;28;19904;-77
2022/05/02 01:05:06;;;;;;;;;;;14.90;99.90;;;;;;5077367;28;20007;-76
2022/05/02 01:07:31;;;;;;;;;;;15.00;99.90;;;;;;5077326;28;19919;-77
2022/05/02 01:09:57;;;;;;;;;;;15.30;99.90;;;;;;5077333;28;19991;-78
2022/05/02 01:12:24;;;;;;;;;;;15.20;99.90;;;;;;5077143;28;19904;-78
2022/05/02 01:14:53;;;;;;;;;;;15.10;99.90;;;;;;5077588;28;19909;-78
2022/05/02 01:17:18;;;;;;;;;;;15.10;99.90;;;;;;5077308;28;19904;-79
2022/05/02 01:19:44;;;;;;;;;;;15.30;99.90;;;;;;5076955;28;19950;-77
2022/05/02 01:22:10;;;;;;;;;;;15.40;99.90;;;;;;5077067;28;19983;-78
2022/05/02 01:24:42;;;;;;;;;;;15.40;99.90;;;;;;5076960;28;19904;-78
2022/05/02 01:27:08;;;;;;;;;;;15.20;99.90;;;;;;5077282;28;19904;-77
2022/05/02 01:29:35;;;;;;;;;;;15.30;99.90;;;;;;5076855;28;20365;-78
2022/05/02 01:32:01;;;;;;;;;;;15.30;99.90;;;;;;5076841;28;20364;-77
2022/05/02 01:34:27;;;;;;;;;;;14.90;99.90;;;;;;5058789;28;19904;-77
2022/05/02 01:36:52;;;;;;;;;;;14.80;99.90;;;;;;5076748;28;20339;-77
2022/05/02 01:39:18;;;;;;;;;;;14.90;99.90;;;;;;5076908;28;19905;-78
2022/05/02 01:41:44;;;;;;;;;;;15.10;99.90;;;;;;5077124;28;19912;-77
2022/05/02 01:44:10;;;;;;;;;;;15.30;99.90;;;;;;5076613;28;19975;-78
2022/05/02 01:46:36;;;;;;;;;;;15.10;99.90;;;;;;5076629;28;19987;-79
2022/05/02 01:49:01;;;;;;;;;;;15.00;99.90;;;;;;5076649;28;19904;-79
2022/05/02 01:51:27;;;;;;;;;;;15.00;99.90;;;;;;5076437;28;19954;-78
2022/05/02 01:53:53;;;;;;;;;;;15.00;99.90;;;;;;5076418;28;19962;-78
2022/05/02 01:56:18;;;;;;;;;;;15.00;99.90;;;;;;5075891;28;20364;-77
2022/05/02 01:58:44;;;;;;;;;;;15.00;99.90;;;;;;5076003;28;19932;-76
2022/05/02 02:01:09;;;;;;;;;;;15.10;99.90;;;;;;5076292;28;20010;-77
2022/05/02 02:03:35;;;;;;;;;;;15.10;99.90;;;;;;5076309;28;19911;-77
2022/05/02 02:06:00;;;;;;;;;;;15.00;99.90;;;;;;5076200;28;19904;-77
2022/05/02 02:08:30;;;;;;;;;;;14.90;99.90;;;;;;5076602;28;20387;-79
2022/05/02 02:10:58;;;;;;;;;;;14.90;99.90;;;;;;5076423;28;19908;-77
2022/05/02 02:13:23;;;;;;;;;;;15.00;99.90;;;;;;5058090;28;19905;-77
2022/05/02 02:15:49;;;;;;;;;;;15.00;99.90;;;;;;5076163;28;19931;-76
2022/05/02 02:18:15;;;;;;;;;;;14.90;99.90;;;;;;5058047;28;19904;-78
2022/05/02 02:20:44;;;;;;;;;;;14.90;99.90;;;;;;5075891;28;19951;-78
2022/05/02 02:23:10;;;;;;;;;;;14.90;99.90;;;;;;5057951;28;19916;-78
2022/05/02 02:25:38;;;;;;;;;;;14.90;99.90;;;;;;5075864;28;19905;-76
2022/05/02 02:28:04;;;;;;;;;;;14.90;99.90;;;;;;5075855;28;19912;-77
2022/05/02 02:30:30;;;;;;;;;;;14.80;99.90;;;;;;5075777;28;20000;-78
2022/05/02 02:32:59;;;;;;;;;;;14.90;99.90;;;;;;5075751;28;19912;-78
2022/05/02 02:35:25;;;;;;;;;;;14.90;99.90;;;;;;5075668;28;19904;-76
2022/05/02 02:37:50;;;;;;;;;;;14.90;99.90;;;;;;5075416;28;19923;-78
2022/05/02 02:40:16;;;;;;;;;;;14.80;99.90;;;;;;5057469;28;19910;-79
2022/05/02 02:42:42;;;;;;;;;;;14.90;99.90;;;;;;5057486;28;19911;-78
2022/05/02 02:45:08;;;;;;;;;;;14.80;99.90;;;;;;5075701;28;19904;-78
2022/05/02 02:47:34;;;;;;;;;;;14.80;99.90;;;;;;5075396;28;19912;-79
2022/05/02 02:49:59;;;;;;;;;;;14.70;99.90;;;;;;5075456;28;19908;-77
2022/05/02 02:52:25;;;;;;;;;;;14.60;99.90;;;;;;5057395;28;20311;-79
2022/05/02 02:54:50;;;;;;;;;;;14.50;99.90;;;;;;5075278;28;19911;-78
2022/05/02 02:57:16;;;;;;;;;;;14.40;99.90;;;;;;5075362;28;19904;-79
2022/05/02 02:59:41;;;;;;;;;;;14.60;99.90;;;;;;5075302;28;19904;-77
2022/05/02 03:02:07;;;;;;;;;;;14.70;99.90;;;;;;5057106;28;20018;-77
2022/05/02 03:07:19;;;;;;;;;;;14.70;99.90;;;;;;5074882;28;20280;-77
2022/05/02 03:09:45;;;;;;;;;;;14.70;99.90;;;;;;5075007;28;19904;-79
2022/05/02 03:12:10;;;;;;;;;;;14.70;99.90;;;;;;5075055;28;20280;-78
2022/05/02 03:14:36;;;;;;;;;;;14.80;99.90;;;;;;5074916;28;20326;-78
2022/05/02 03:17:02;;;;;;;;;;;14.60;99.90;;;;;;5074886;28;19905;-77
2022/05/02 03:19:27;;;;;;;;;;;14.60;99.90;;;;;;5074837;28;19964;-77
2022/05/02 03:21:53;;;;;;;;;;;14.50;99.90;;;;;;5056830;28;20337;-78
2022/05/02 03:24:19;;;;;;;;;;;14.50;99.90;;;;;;5074626;28;19904;-77
2022/05/02 03:26:44;;;;;;;;;;;14.50;99.90;;;;;;5074634;28;19939;-76
2022/05/02 03:29:10;;;;;;;;;;;14.50;99.90;;;;;;5074756;28;19912;-78
2022/05/02 03:31:35;;;;;;;;;;;14.60;99.90;;;;;;5074542;28;20410;-79
2022/05/02 03:34:01;;;;;;;;;;;14.60;99.90;;;;;;5074497;28;19905;-77
2022/05/02 03:36:26;;;;;;;;;;;14.60;99.90;;;;;;5074466;28;19953;-77
2022/05/02 03:38:52;;;;;;;;;;;14.60;99.90;;;;;;5074567;28;20364;-78
2022/05/02 03:41:18;;;;;;;;;;;14.60;99.90;;;;;;5074322;28;19908;-76
2022/05/02 03:43:44;;;;;;;;;;;14.60;99.90;;;;;;5074349;28;19911;-77
2022/05/02 03:46:09;;;;;;;;;;;14.70;99.90;;;;;;5074232;28;19908;-77
2022/05/02 03:48:35;;;;;;;;;;;14.70;99.90;;;;;;5074377;28;20438;-79
2022/05/02 03:51:00;;;;;;;;;;;14.70;99.90;;;;;;5074208;28;20426;-77
2022/05/02 03:53:26;;;;;;;;;;;14.60;99.90;;;;;;5074146;28;19905;-78
2022/05/02 03:55:52;;;;;;;;;;;14.60;99.90;;;;;;5074348;28;20303;-78
2022/05/02 03:58:17;;;;;;;;;;;14.60;99.90;;;;;;5074195;28;19904;-78
2022/05/02 04:00:43;;;;;;;;;;;14.60;99.90;;;;;;5073962;28;19915;-76
2022/05/02 04:03:09;;;;;;;;;;;14.60;99.90;;;;;;5073984;28;19987;-79
2022/05/02 04:05:34;;;;;;;;;;;14.60;99.90;;;;;;5073960;28;19999;-76
2022/05/02 04:08:00;;;;;;;;;;;14.70;99.90;;;;;;5056040;28;19904;-78
2022/05/02 04:10:25;;;;;;;;;;;14.70;99.90;;;;;;5073823;28;20357;-76
2022/05/02 04:12:51;;;;;;;;;;;14.60;99.90;;;;;;5055867;28;19904;-77
2022/05/02 04:15:19;;;;;;;;;;;14.50;99.90;;;;;;5074240;28;20045;-77
2022/05/02 04:17:45;;;;;;;;;;;14.50;99.90;;;;;;5073802;28;19904;-78
2022/05/02 04:20:10;;;;;;;;;;;14.50;99.90;;;;;;5073327;28;19935;-79
2022/05/02 04:22:37;;;;;;;;;;;14.50;99.90;;;;;;5073780;28;20277;-76
2022/05/02 04:25:03;;;;;;;;;;;14.50;99.90;;;;;;5055756;28;19955;-78
2022/05/02 04:27:29;;;;;;;;;;;14.40;99.90;;;;;;5073710;28;19998;-79
2022/05/02 04:29:54;;;;;;;;;;;14.40;99.90;;;;;;5073743;28;20404;-76
2022/05/02 04:32:20;;;;;;;;;;;14.40;99.90;;;;;;5073644;28;20281;-79
2022/05/02 04:34:45;;;;;;;;;;;14.40;99.90;;;;;;5073639;28;19905;-77
2022/05/02 04:37:11;;;;;;;;;;;14.50;99.90;;;;;;5055409;28;20387;-77
2022/05/02 04:39:37;;;;;;;;;;;14.40;99.90;;;;;;5073789;28;19905;-77
2022/05/02 04:42:02;;;;;;;;;;;14.30;99.90;;;;;;5073612;28;20312;-76
2022/05/02 04:44:29;;;;;;;;;;;14.30;99.90;;;;;;5073572;28;19905;-77
2022/05/02 04:46:54;;;;;;;;;;;14.30;99.90;;;;;;5055467;28;20322;-77
2022/05/02 04:49:20;;;;;;;;;;;14.30;99.90;;;;;;5073883;28;19909;-77
2022/05/02 04:51:45;;;;;;;;;;;14.30;99.90;;;;;;5055508;28;19961;-78
2022/05/02 04:54:11;;;;;;;;;;;14.30;99.90;;;;;;5073567;28;20280;-77
2022/05/02 04:56:37;;;;;;;;;;;14.20;99.90;;;;;;5055493;28;19950;-78
2022/05/02 04:59:02;;;;;;;;;;;14.30;99.90;;;;;;5073556;28;19943;-79
2022/05/02 05:01:28;;;;;;;;;;;14.30;99.90;;;;;;5073672;28;19916;-77
2022/05/02 05:03:54;;;;;;;;;;;14.30;99.90;;;;;;5073498;28;19911;-78
2022/05/02 05:06:19;;;;;;;;;;;14.20;99.90;;;;;;5073361;28;20280;-78
2022/05/02 05:08:45;;;;;;;;;;;14.30;99.90;;;;;;5073303;28;20360;-77
2022/05/02 05:11:50;;;;;;;;;;;14.30;99.90;;;;;;5055258;28;19904;-77
2022/05/02 05:17:20;;;;;;;;;;;14.30;99.90;;;;;;4953005;29;19949;-77
2022/05/02 05:19:46;;;;;;;;;;;14.30;99.90;;;;;;5040685;28;20050;-78
2022/05/02 05:22:11;;;;;;;;;;;14.40;99.90;;;;;;5073160;28;20416;-77
2022/05/02 05:24:55;;;;;;;;;;;14.30;99.90;;;;;;5055118;28;20268;-77
2022/05/02 05:27:21;;;;;;;;;;;14.20;99.90;;;;;;5055134;28;19904;-77
2022/05/02 05:29:50;;;;;;;;;;;14.10;99.90;;;;;;5073259;28;19912;-79
2022/05/02 05:32:26;;;;;;;;;;;14.20;99.90;;;;;;5074221;28;19905;-77
2022/05/02 05:35:07;;;;;;;;;;;14.30;99.90;;;;;;5076919;28;20364;-78
2022/05/02 05:37:53;;;;;;;;;;;14.30;99.90;;;;;;5076567;28;19928;-77
2022/05/02 05:40:22;;;;;;;;;;;14.30;99.90;;;;;;5076664;28;19908;-78
2022/05/02 05:42:48;;;;;;;;;;;14.30;99.90;;;;;;5076697;28;19909;-76
2022/05/02 05:45:40;;;;;;;;;;;14.30;99.90;;;;;;5076543;28;19954;-78
2022/05/02 05:48:05;;;;;;;;;;;14.40;99.90;;;;;;5030572;28;19927;-78
2022/05/02 05:50:32;;;;;;;;;;;14.40;99.90;;;;;;5076514;28;20360;-78
2022/05/02 05:53:05;;;;;;;;;;;14.50;99.90;;;;;;5058518;28;20317;-79
2022/05/02 05:55:39;;;;;;;;;;;14.60;99.90;;;;;;5076402;28;19966;-80
2022/05/02 05:58:14;;;;;;;;;;;14.70;99.90;;;;;;5058142;28;19904;-79
2022/05/02 06:00:44;;;;;;;;;;;14.80;99.90;;;;;;5058326;28;19918;-77
2022/05/02 06:03:14;;;;;;;;;;;14.90;99.90;;;;;;5076367;28;19916;-79
2022/05/02 06:05:40;;;;;;;;;;;14.90;99.90;;;;;;5076510;28;19916;-77
2022/05/02 06:08:18;;;;;;;;;;;14.90;99.90;;;;;;5076186;28;19904;-78
2022/05/02 06:10:44;;;;;;;;;;;14.80;99.90;;;;;;5076102;28;19904;-78
2022/05/02 06:13:09;;;;;;;;;;;15.00;99.90;;;;;;5058115;28;19919;-79
2022/05/02 06:18:28;;;;;;;;;;;15.10;99.90;;;;;;5075763;28;19926;-78
2022/05/02 06:20:55;;;;;;;;;;;15.10;99.90;;;;;;5076150;28;19919;-80
2022/05/02 06:23:21;;;;;;;;;;;15.00;99.90;;;;;;5076228;28;19995;-79
2022/05/02 06:25:52;;;;;;;;;;;15.20;99.90;;;;;;5076010;28;19927;-77
2022/05/02 06:28:20;;;;;;;;;;;15.30;99.90;;;;;;5075899;28;20006;-79
2022/05/02 06:30:47;;;;;;;;;;;15.30;99.90;;;;;;5075860;28;19908;-77
2022/05/02 06:33:14;;;;;;;;;;;15.40;99.90;;;;;;5076156;28;19904;-78
2022/05/02 06:35:51;;;;;;;;;;;15.30;99.90;;;;;;5057857;28;19905;-80
2022/05/02 06:38:20;;;;;;;;;;;15.50;99.90;;;;;;5057536;28;20467;-77
2022/05/02 06:40:58;;;;;;;;;;;15.40;99.90;;;;;;5076180;28;20016;-77
2022/05/02 06:43:26;;;;;;;;;;;15.40;99.90;;;;;;5075250;28;19932;-78
2022/05/02 06:45:52;;;;;;;;;;;15.50;99.90;;;;;;5075675;28;19987;-78
2022/05/02 06:48:23;;;;;;;;;;;15.50;99.90;;;;;;5075487;28;19967;-80
2022/05/02 06:50:59;;;;;;;;;;;15.40;99.90;;;;;;5057481;28;19908;-79
2022/05/02 06:53:40;;;;;;;;;;;15.50;99.90;;;;;;5057453;28;19954;-79
2022/05/02 06:56:21;;;;;;;;;;;15.60;99.90;;;;;;5075388;28;19987;-77
2022/05/02 06:58:56;;;;;;;;;;;15.70;99.90;;;;;;5075504;28;19905;-79
2022/05/02 07:01:22;;;;;;;;;;;15.80;99.90;;;;;;5075161;28;19915;-77
2022/05/02 07:03:48;;;;;;;;;;;15.90;99.90;;;;;;5075150;28;19904;-78
2022/05/02 07:06:17;;;;;;;;;;;15.90;99.90;;;;;;5075204;28;19911;-78
2022/05/02 07:08:50;;;;;;;;;;;16.10;99.90;;;;;;5075077;28;19904;-77
2022/05/02 07:11:19;;;;;;;;;;;16.30;99.90;;;;;;5075327;28;19950;-78
2022/05/02 07:13:52;;;;;;;;;;;16.30;99.90;;;;;;5074938;28;19904;-78
2022/05/02 07:16:24;;;;;;;;;;;16.30;99.90;;;;;;5075460;28;19905;-79
2022/05/02 07:19:14;;;;;;;;;;;16.60;99.90;;;;;;5074948;28;20279;-79
2022/05/02 07:21:57;;;;;;;;;;;16.60;99.90;;;;;;5074822;28;20364;-79
2022/05/02 07:24:30;;;;;;;;;;;16.60;99.90;;;;;;5056839;28;19953;-78
2022/05/02 07:27:14;;;;;;;;;;;16.60;99.90;;;;;;5074798;28;20395;-77
2022/05/02 07:29:42;;;;;;;;;;;16.70;99.90;;;;;;5074642;28;19930;-77
2022/05/02 07:32:09;;;;;;;;;;;17.00;99.90;;;;;;5074550;28;20349;-79
2022/05/02 07:34:36;;;;;;;;;;;16.80;99.90;;;;;;5074487;28;19904;-78
2022/05/02 07:37:01;;;;;;;;;;;16.80;99.90;;;;;;5074285;28;19923;-76
2022/05/02 07:39:28;;;;;;;;;;;16.70;99.90;;;;;;5074463;28;20356;-78
2022/05/02 07:41:54;;;;;;;;;;;16.80;99.90;;;;;;5074701;28;19916;-79
2022/05/02 07:44:23;;;;;;;;;;;16.80;99.90;;;;;;5074692;28;19951;-77
2022/05/02 07:46:50;;;;;;;;;;;16.80;99.90;;;;;;5074344;28;19995;-77
2022/05/02 07:49:22;;;;;;;;;;;17.10;99.90;;;;;;5074277;28;20320;-78
2022/05/02 07:51:52;;;;;;;;;;;17.20;99.90;;;;;;5074627;28;19904;-78
2022/05/02 07:54:31;;;;;;;;;;;17.30;99.90;;;;;;5055894;28;19904;-79
2022/05/02 07:56:57;;;;;;;;;;;17.50;99.90;;;;;;5074194;28;19910;-78
2022/05/02 07:59:30;;;;;;;;;;;17.60;99.90;;;;;;5056232;28;20407;-79
2022/05/02 08:01:57;;;;;;;;;;;17.80;99.90;;;;;;5074375;28;19909;-79
2022/05/02 08:04:23;;;;;;;;;;;18.20;99.90;;;;;;5074142;28;20002;-78
2022/05/02 08:06:49;;;;;;;;;;;18.20;99.90;;;;;;5074124;28;19970;-78
2022/05/02 08:09:15;;;;;;;;;;;18.30;99.90;;;;;;5073997;28;20011;-80
2022/05/02 08:11:40;;;;;;;;;;;18.30;99.90;;;;;;5073872;28;19904;-78
2022/05/02 08:14:08;;;;;;;;;;;18.40;99.90;;;;;;5074195;28;19904;-79
2022/05/02 08:16:37;;;;;;;;;;;18.40;99.90;;;;;;5073986;28;20369;-79
2022/05/02 08:19:09;;;;;;;;;;;18.50;99.90;;;;;;5055932;28;19911;-79
2022/05/02 08:21:42;;;;;;;;;;;18.50;99.90;;;;;;5073836;28;19909;-78
2022/05/02 08:29:48;;;;;;;;;;;19.00;99.90;;;;;;5073520;28;19911;-78
2022/05/02 08:32:33;;;;;;;;;;;19.30;99.90;;;;;;5055469;28;19955;-79
2022/05/02 08:35:05;;;;;;;;;;;19.40;99.90;;;;;;5073835;28;20424;-77
2022/05/02 08:37:33;;;;;;;;;;;19.30;99.90;;;;;;5073403;28;19916;-77
2022/05/02 08:40:02;;;;;;;;;;;19.20;99.90;;;;;;5073835;28;19904;-78
2022/05/02 08:42:41;;;;;;;;;;;19.10;99.90;;;;;;5073967;28;19908;-78
2022/05/02 08:45:26;;;;;;;;;;;18.90;99.90;;;;;;5073952;28;19904;-78
2022/05/02 08:47:52;;;;;;;;;;;19.20;99.90;;;;;;5073748;28;20006;-79
2022/05/02 08:50:27;;;;;;;;;;;19.40;99.90;;;;;;5055539;28;19959;-78
2022/05/02 08:52:59;;;;;;;;;;;19.50;99.90;;;;;;5055527;28;19905;-79
2022/05/02 08:55:36;;;;;;;;;;;19.80;99.90;;;;;;5055456;28;19999;-78
2022/05/02 08:58:05;;;;;;;;;;;19.80;99.90;;;;;;5073445;28;19905;-77
2022/05/02 09:00:30;;;;;;;;;;;19.80;99.90;;;;;;5073377;28;20348;-79
2022/05/02 09:02:56;;;;;;;;;;;19.80;99.90;;;;;;5073514;28;19915;-79
2022/05/02 09:05:31;;;;;;;;;;;19.80;99.90;;;;;;5073370;28;19905;-79
2022/05/02 09:07:57;;;;;;;;;;;19.50;99.90;;;;;;5077580;28;19944;-79
2022/05/02 09:10:36;;;;;;;;;;;19.80;99.90;;;;;;5077259;28;20273;-79
2022/05/02 09:13:21;;;;;;;;;;;20.00;99.90;;;;;;5077017;28;19998;-78
2022/05/02 09:16:05;;;;;;;;;;;20.50;99.90;;;;;;5059239;28;19920;-79
2022/05/02 09:18:42;;;;;;;;;;;20.80;99.90;;;;;;5077234;28;20245;-79
2022/05/02 09:21:10;;;;;;;;;;;21.00;99.90;;;;;;5059040;28;20007;-79
2022/05/02 09:23:42;;;;;;;;;;;21.10;99.00;;;;;;5077112;28;19950;-78
2022/05/02 09:26:13;;;;;;;;;;;21.00;98.50;;;;;;5059062;28;19911;-79
2022/05/02 09:28:48;;;;;;;;;;;20.90;98.10;;;;;;5076925;28;19904;-79
2022/05/02 09:31:25;;;;;;;;;;;20.80;98.80;;;;;;5058954;28;19911;-78
2022/05/02 09:34:10;;;;;;;;;;;20.90;99.20;;;;;;5058709;28;20348;-78
2022/05/02 09:36:43;;;;;;;;;;;21.10;98.60;;;;;;5076866;28;19911;-79
2022/05/02 09:39:13;;;;;;;;;;;21.10;98.20;;;;;;5077394;28;20260;-78
2022/05/02 09:41:51;;;;;;;;;;;21.30;97.50;;;;;;5058687;28;20265;-79
2022/05/02 09:50:29;;;;;;;;;;;21.30;97.20;;;;;;5076329;28;20387;-79
2022/05/02 09:53:12;;;;;;;;;;;21.40;96.20;;;;;;5076627;28;19908;-79
2022/05/02 09:58:35;;;;;;;;;;;21.70;94.30;;;;;;5076137;28;20376;-79
2022/05/02 10:01:17;;;;;;;;;;;21.80;95.80;;;;;;5076335;28;20376;-79
2022/05/02 10:03:59;;;;;;;;;;;22.10;94.60;;;;;;5076830;28;19904;-80
2022/05/02 10:06:35;;;;;;;;;;;22.50;93.90;;;;;;5076482;28;19999;-78
2022/05/02 10:09:09;;;;;;;;;;;22.70;92.80;;;;;;5076244;28;19908;-80
2022/05/02 10:11:40;;;;;;;;;;;23.20;91.90;;;;;;5076244;28;19911;-77
2022/05/02 10:14:08;;;;;;;;;;;24.10;89.90;;;;;;5076282;28;19904;-80
2022/05/02 10:16:49;;;;;;;;;;;25.30;85.40;;;;;;5076324;28;19953;-79
2022/05/02 10:19:20;;;;;;;;;;;26.10;78.70;;;;;;5075352;28;20046;-79
2022/05/02 10:22:04;;;;;;;;;;;26.60;76.10;;;;;;5075984;28;19908;-78
2022/05/02 10:24:38;;;;;;;;;;;26.90;74.10;;;;;;5076151;28;19904;-80
2022/05/02 10:27:34;;;;;;;;;;;28.30;70.30;;;;;;5075902;28;19946;-81
2022/05/02 10:30:02;;;;;;;;;;;29.70;65.00;;;;;;5050826;28;19983;-79
2022/05/02 10:32:31;;;;;;;;;;;30.00;60.00;;;;;;5076082;28;19904;-80
2022/05/02 10:34:59;;;;;;;;;;;30.40;59.00;;;;;;5075978;28;19904;-80
2022/05/02 10:37:31;;;;;;;;;;;31.60;57.10;;;;;;5075819;28;19924;-79
2022/05/02 10:40:08;;;;;;;;;;;32.90;53.40;;;;;;5075878;28;19951;-80
2022/05/02 10:42:34;;;;;;;;;;;33.80;51.10;;;;;;5075811;28;19909;-80
2022/05/02 10:45:02;;;;;;;;;;;34.00;47.00;;;;;;5075578;28;19927;-78
2022/05/02 10:47:36;;;;;;;;;;;33.30;48.90;;;;;;5075782;28;19905;-77
2022/05/02 10:50:05;;;;;;;;;;;33.30;49.10;;;;;;5075793;28;19943;-77
2022/05/02 10:52:35;;;;;;;;;;;34.70;45.80;;;;;;5057508;28;19977;-76
2022/05/02 10:55:07;;;;;;;;;;;35.20;46.00;;;;;;5075429;28;19908;-77
2022/05/02 10:57:39;;;;;;;;;;;35.70;45.20;;;;;;5075534;28;19987;-77
2022/05/02 11:00:10;;;;;;;;;;;34.80;42.60;;;;;;5075271;28;19904;-78
2022/05/02 11:02:42;;;;;;;;;;;35.70;43.40;;;;;;5075624;28;19916;-77
2022/05/02 11:05:14;;;;;;;;;;;35.10;42.00;;;;;;5075230;28;19957;-77
2022/05/02 11:07:54;;;;;;;;;;;35.00;42.80;;;;;;5075091;28;19904;-78
2022/05/02 11:10:21;;;;;;;;;;;35.00;42.50;;;;;;5075002;28;19905;-77
2022/05/02 11:12:51;;;;;;;;;;;34.90;43.20;;;;;;5075123;28;20384;-80
2022/05/02 11:15:17;;;;;;;;;;;34.70;43.00;;;;;;5074977;28;19987;-80
2022/05/02 11:17:50;;;;;;;;;;;33.80;42.30;;;;;;5074865;28;20356;-80
2022/05/02 11:23:03;;;;;;;;;;;33.80;41.90;;;;;;5074681;28;20383;-80
2022/05/02 11:25:34;;;;;;;;;;;36.00;41.80;;;;;;5074784;28;19904;-80
2022/05/02 11:28:21;;;;;;;;;;;38.80;39.50;;;;;;5056546;28;20007;-76
2022/05/02 11:30:50;;;;;;;;;;;38.00;38.80;;;;;;5055439;28;19906;-78
2022/05/02 11:33:21;;;;;;;;;;;37.60;38.70;;;;;;5074589;28;19904;-76
2022/05/02 11:35:48;;;;;;;;;;;36.60;39.50;;;;;;5056580;28;19911;-79
2022/05/02 11:38:33;;;;;;;;;;;35.10;40.60;;;;;;5074257;28;20035;-80
2022/05/02 11:40:59;;;;;;;;;;;34.90;40.30;;;;;;5074466;28;19966;-80
2022/05/02 11:43:28;;;;;;;;;;;34.50;40.80;;;;;;5074395;28;19939;-79
2022/05/02 11:45:57;;;;;;;;;;;35.60;39.70;;;;;;5056381;28;19999;-79
2022/05/02 11:48:22;;;;;;;;;;;35.90;39.40;;;;;;5074308;28;19905;-79
2022/05/02 11:50:48;;;;;;;;;;;34.70;38.60;;;;;;5074419;28;19911;-79
2022/05/02 11:53:14;;;;;;;;;;;35.60;39.00;;;;;;5074438;28;19916;-80
2022/05/02 11:55:42;;;;;;;;;;;35.00;39.40;;;;;;5074237;28;19908;-80
2022/05/02 11:58:34;;;;;;;;;;;35.20;39.50;;;;;;5074169;28;19904;-79
2022/05/02 12:01:05;;;;;;;;;;;35.20;40.40;;;;;;5055832;28;19908;-80
2022/05/02 12:03:40;;;;;;;;;;;36.10;39.20;;;;;;5074151;28;20330;-80
2022/05/02 12:06:08;;;;;;;;;;;36.60;38.90;;;;;;5074072;28;19927;-80
2022/05/02 12:08:35;;;;;;;;;;;36.90;38.20;;;;;;5074224;28;19911;-80
2022/05/02 12:11:03;;;;;;;;;;;36.60;37.70;;;;;;5073826;28;19912;-81
2022/05/02 12:13:32;;;;;;;;;;;36.80;36.80;;;;;;5074053;28;19908;-79
2022/05/02 12:15:59;;;;;;;;;;;37.40;36.60;;;;;;5074010;28;19905;-78
2022/05/02 12:18:44;;;;;;;;;;;38.40;36.50;;;;;;5073873;28;19905;-75
2022/05/02 12:21:24;;;;;;;;;;;38.50;36.20;;;;;;5073631;28;19924;-78
2022/05/02 12:23:52;;;;;;;;;;;41.20;34.90;;;;;;5073812;28;19908;-76
2022/05/02 12:26:20;;;;;;;;;;;39.30;33.80;;;;;;5055830;28;20357;-77
2022/05/02 12:28:51;;;;;;;;;;;35.40;35.30;;;;;;5073751;28;19912;-80
2022/05/02 12:31:27;;;;;;;;;;;33.20;37.00;;;;;;5073878;28;19911;-80
2022/05/02 12:34:05;;;;;;;;;;;33.60;38.60;;;;;;5073717;28;19948;-79
2022/05/02 12:36:43;;;;;;;;;;;33.50;39.50;;;;;;5073476;28;20360;-81
2022/05/02 12:39:12;;;;;;;;;;;35.30;37.60;;;;;;5073776;28;20323;-81
2022/05/02 12:42:01;;;;;;;;;;;38.20;37.80;;;;;;5073130;28;19908;-78
2022/05/02 12:44:46;;;;;;;;;;;40.20;34.70;;;;;;5073827;28;19908;-79
2022/05/02 12:47:28;;;;;;;;;;;41.60;34.00;;;;;;5073701;28;19911;-77
2022/05/02 12:50:01;;;;;;;;;;;39.60;33.70;;;;;;5073535;28;19904;-77
2022/05/02 12:52:27;;;;;;;;;;;37.70;36.00;;;;;;5073498;28;20327;-79
2022/05/02 12:54:54;;;;;;;;;;;39.50;34.80;;;;;;5073973;28;20265;-76
2022/05/02 13:00:31;;;;;;;;;;;42.20;33.30;;;;;;5073164;28;19951;-78
2022/05/02 13:02:59;;;;;;;;;;;40.40;32.70;;;;;;5073855;28;19904;-78
2022/05/02 13:05:28;;;;;;;;;;;40.50;33.10;;;;;;5073294;28;19908;-76
2022/05/02 13:07:54;;;;;;;;;;;40.20;33.20;;;;;;5073350;28;19916;-76
2022/05/02 13:10:21;;;;;;;;;;;39.40;33.30;;;;;;5073279;28;19905;-77
2022/05/02 13:12:53;;;;;;;;;;;38.90;32.80;;;;;;5073310;28;19905;-77
2022/05/02 13:15:19;;;;;;;;;;;42.30;31.10;;;;;;5073294;28;19990;-77
2022/05/02 13:17:45;;;;;;;;;;;42.70;30.30;;;;;;5073234;28;19954;-77
2022/05/02 13:20:14;;;;;;;;;;;43.90;30.20;;;;;;5073305;28;19904;-76
2022/05/02 13:22:58;;;;;;;;;;;42.40;29.80;;;;;;5072825;28;19908;-76
2022/05/02 13:25:42;;;;;;;;;;;39.80;32.50;;;;;;5073176;28;19930;-78
2022/05/02 13:28:09;;;;;;;;;;;37.60;34.20;;;;;;5073246;28;19905;-79
2022/05/02 13:30:34;;;;;;;;;;;34.20;36.80;;;;;;5073101;28;19912;-80
2022/05/02 13:33:03;;;;;;;;;;;32.20;38.80;;;;;;5073105;28;19908;-79
2022/05/02 13:35:30;;;;;;;;;;;32.00;40.50;;;;;;5073169;28;19905;-78
2022/05/02 13:38:07;;;;;;;;;;;32.60;40.90;;;;;;5072812;28;19960;-79
2022/05/02 13:40:42;;;;;;;;;;;33.60;40.40;;;;;;5072920;28;19978;-80
2022/05/02 13:43:14;;;;;;;;;;;36.30;38.20;;;;;;5073161;28;19999;-80
2022/05/02 13:45:42;;;;;;;;;;;36.80;36.50;;;;;;5072912;28;19908;-81
2022/05/02 13:48:20;;;;;;;;;;;35.20;38.20;;;;;;5054899;28;20250;-79
2022/05/02 13:50:52;;;;;;;;;;;34.60;38.50;;;;;;5072884;28;19912;-80
2022/05/02 13:53:36;;;;;;;;;;;34.30;38.90;;;;;;5074231;28;19905;-80
2022/05/02 13:56:16;;;;;;;;;;;34.30;39.90;;;;;;5076597;28;19904;-79
2022/05/02 13:58:54;;;;;;;;;;;35.80;38.80;;;;;;5076717;28;19939;-79
2022/05/02 14:01:39;;;;;;;;;;;35.80;38.30;;;;;;5076656;28;19908;-80
2022/05/02 14:06:59;;;;;;;;;;;34.60;38.10;;;;;;5076784;28;19908;-80
2022/05/02 14:09:33;;;;;;;;;;;34.30;38.30;;;;;;5058136;28;19911;-79
2022/05/02 14:11:58;;;;;;;;;;;33.00;40.10;;;;;;5058178;28;19904;-78
2022/05/02 14:14:24;;;;;;;;;;;31.90;40.80;;;;;;5076211;28;20292;-79
2022/05/02 14:16:54;;;;;;;;;;;31.20;41.90;;;;;;5076649;28;19908;-79
2022/05/02 14:19:25;;;;;;;;;;;30.40;43.00;;;;;;5076386;28;19911;-78
2022/05/02 14:21:51;;;;;;;;;;;29.80;44.00;;;;;;5075931;28;19912;-80
2022/05/02 14:24:18;;;;;;;;;;;29.00;44.40;;;;;;5076023;28;20250;-79
2022/05/02 14:26:54;;;;;;;;;;;28.20;45.70;;;;;;5076151;28;20265;-79
2022/05/02 14:29:20;;;;;;;;;;;27.70;46.20;;;;;;5076075;28;20395;-79
2022/05/02 14:31:46;;;;;;;;;;;27.30;46.60;;;;;;5075895;28;19904;-79
2022/05/02 14:34:12;;;;;;;;;;;27.20;47.70;;;;;;5075883;28;20323;-79
2022/05/02 14:36:41;;;;;;;;;;;27.30;48.20;;;;;;5075522;28;19905;-78
2022/05/02 14:39:07;;;;;;;;;;;28.10;47.80;;;;;;5075864;28;20446;-80
2022/05/02 14:41:39;;;;;;;;;;;29.80;46.00;;;;;;5076122;28;20348;-79
2022/05/02 14:44:07;;;;;;;;;;;30.10;45.70;;;;;;5075637;28;20361;-79
2022/05/02 14:46:37;;;;;;;;;;;29.80;45.70;;;;;;5075794;28;19954;-79
2022/05/02 14:49:03;;;;;;;;;;;28.70;46.50;;;;;;5075708;28;19954;-79
2022/05/02 14:51:30;;;;;;;;;;;27.50;48.10;;;;;;5057502;28;20342;-78
2022/05/02 14:53:57;;;;;;;;;;;25.70;50.80;;;;;;5075472;28;19927;-79
2022/05/02 14:56:24;;;;;;;;;;;24.60;53.00;;;;;;5075445;28;19911;-78
2022/05/02 14:58:53;;;;;;;;;;;24.00;54.70;;;;;;5057458;28;19942;-79
2022/05/02 15:01:19;;;;;;;;;;;23.10;57.40;;;;;;5075529;28;19908;-79
2022/05/02 15:03:46;;;;;;;;;;;22.70;59.10;;;;;;5075131;28;19934;-78